Flight Track Log - Related Links

Times and Time Zones

All times are in EDT time to prevent confusion due to time zone crossing. See the RPA3436 flight status page for this flight to view local times or setup timezone preferences in your user account.


Time Position Orientation Groundspeed Altitude Reporting Facility
EDT Latitude Longitude Course Direction KTS MPH feet Rate Location/Type
Fri 08:11:39 AM 32.8911 -79.9908 17° North 179 206 3,800  Level Jacksonville Center
Fri 08:12:00 AM 33.2352 -79.9296 North  Level FlightAware Approximate
Fri 08:12:39 AM 32.9481 -79.9294 42° Northeast 220 253 7,300  Level Jacksonville Center
Fri 08:13:00 AM 33.3515 -79.8909 23° Northeast  Level FlightAware Approximate
Fri 08:13:39 AM 33.0317 -79.9342 357° North 239 275 10,600  Level Jacksonville Center
Fri 08:14:00 AM 33.4701 -79.8609 13° North  Level FlightAware Approximate
Fri 08:14:39 AM 33.1225 -79.8964 19° North 282 325 13,000  Level Jacksonville Center
Fri 08:15:00 AM 33.5884 -79.8272 13° North  Level FlightAware Approximate
Fri 08:15:39 AM 33.2133 -79.8486 24° Northeast 327 376 15,700  Level Jacksonville Center
Fri 08:16:00 AM 33.7073 -79.8000 North  Level FlightAware Approximate
Fri 08:16:39 AM 33.3100 -79.7933 26° Northeast 360 414 18,200  Level Jacksonville Center
Fri 08:17:00 AM 33.8237 -79.7599 17° North  Level FlightAware Approximate
Fri 08:17:39 AM 33.4089 -79.7400 24° Northeast 374 430 20,600  Level Jacksonville Center
Fri 08:18:39 AM 33.5097 -79.6842 25° Northeast 386 444 22,900 2,100 Climbing Jacksonville Center
Fri 08:19:39 AM 33.6128 -79.6281 24° Northeast 397 457 24,800 1,950 Climbing Jacksonville Center
Fri 08:20:39 AM 33.7217 -79.5667 25° Northeast 408 470 26,800 1,850 Climbing Jacksonville Center
Fri 08:21:39 AM 33.8306 -79.5050 25° Northeast 419 482 28,500 1,100 Climbing Jacksonville Center
Fri 08:22:39 AM 33.9394 -79.4458 24° Northeast 424 488 29,000 175 Climbing Jacksonville Center
Fri 08:24:30 AM 34.1275 -79.3422 25° Northeast 388 447 29,000  Level Washington Center
Fri 08:25:30 AM 34.2275 -79.2867 25° Northeast 388 447 29,000  Level Washington Center
Fri 08:26:31 AM 34.3336 -79.2261 25° Northeast 399 459 29,000  Level Washington Center
Fri 08:27:30 AM 34.4356 -79.1675 25° Northeast 404 465 29,000  Level Washington Center
Fri 08:28:31 AM 34.5394 -79.1092 25° Northeast 404 465 29,000  Level Washington Center
Fri 08:29:30 AM 34.6436 -79.0478 26° Northeast 404 465 29,000  Level Washington Center
Fri 08:30:33 AM 34.7453 -78.9892 25° Northeast 404 465 29,000  Level Washington Center
Fri 08:31:31 AM 34.8494 -78.9275 26° Northeast 404 465 29,000  Level Washington Center
Fri 08:32:30 AM 34.9511 -78.8683 25° Northeast 404 465 29,000  Level Washington Center
Fri 08:33:30 AM 35.0531 -78.8067 26° Northeast 404 465 29,000  Level Washington Center
Fri 08:34:31 AM 35.1567 -78.7472 25° Northeast 404 465 29,000  Level Washington Center
Fri 08:35:32 AM 35.2606 -78.6853 26° Northeast 404 465 29,000  Level Washington Center
Fri 08:36:29 AM 35.3772 -78.6158 26° Northeast 416 479 29,000  Level Washington Center
Fri 08:37:30 AM 35.4703 -78.5606 26° Northeast 416 479 29,000  Level Washington Center
Fri 08:38:31 AM 35.5847 -78.4908 26° Northeast 416 479 29,000  Level Washington Center
Fri 08:39:31 AM 35.6947 -78.4308 24° Northeast 416 479 29,000  Level Washington Center
Fri 08:40:32 AM 35.7964 -78.3706 26° Northeast 410 472 29,000  Level Washington Center
Fri 08:41:32 AM 35.9000 -78.3050 27° Northeast 410 472 29,000  Level Washington Center
Fri 08:42:30 AM 36.0036 -78.2469 24° Northeast 410 472 29,000  Level Washington Center
Fri 08:43:30 AM 36.1094 -78.1808 27° Northeast 410 472 29,000  Level Washington Center
Fri 08:44:32 AM 36.2128 -78.1200 25° Northeast 410 472 29,000 -655 Level Washington Center
Fri 08:45:29 AM 36.3164 -78.0564 26° Northeast 410 472 27,700 -1,008 Descending Washington Center
Fri 08:46:31 AM 36.4008 -78.0047 26° Northeast 415 478 27,000 -344 Descending Washington Center
Fri 08:47:31 AM 36.5172 -77.9333 26° Northeast 415 478 27,000 -99 Level Washington Center
Fri 08:48:32 AM 36.6186 -77.8692 27° Northeast 415 478 26,800 -1,119 Descending Washington Center
Fri 08:49:29 AM 36.7239 -77.8050 26° Northeast 410 472 24,800 -2,288 Descending Washington Center
Fri 08:50:30 AM 36.8358 -77.7381 26° Northeast 410 472 22,300 -1,388 Descending Washington Center
Fri 08:51:30 AM 36.9328 -77.6731 28° Northeast 405 466 22,000 -149 Descending Washington Center
Fri 08:52:31 AM 37.0339 -77.6161 24° Northeast 400 460 22,000  Level Washington Center
Fri 08:53:32 AM 37.1389 -77.5744 18° North 395 455 22,000  Level Washington Center
Fri 08:54:32 AM 37.2461 -77.5356 16° North 395 455 22,000  Level Washington Center
Fri 08:55:30 AM 37.3550 -77.4992 15° North 395 455 22,000  Level Washington Center
Fri 08:56:32 AM 37.4600 -77.4600 16° North 395 455 22,000  Level Washington Center
Fri 08:57:32 AM 37.5461 -77.4281 16° North 395 455 22,000 -203 Level Washington Center
Fri 08:58:30 AM 37.6633 -77.3861 16° North 395 455 21,600 -1,210 Descending Washington Center
Fri 08:59:31 AM 37.7683 -77.3467 17° North 395 455 19,600 -1,900 Descending Washington Center
Fri 09:00:30 AM 37.8689 -77.3094 16° North 395 455 17,800 -1,664 Descending Washington Center
Fri 09:01:30 AM 37.9653 -77.2747 16° North 373 429 16,300 -1,770 Descending Washington Center
Fri 09:02:32 AM 38.0597 -77.2428 15° North 361 415 14,200 -1,820 Descending Washington Center
Fri 09:03:32 AM 38.1478 -77.2103 16° North 340 391 12,600 -1,780 Descending Washington Center
Fri 09:04:30 AM 38.2400 -77.1753 17° North 319 367 10,700 -1,311 Descending Washington Center
Fri 09:05:31 AM 38.3153 -77.1556 12° North 314 361 10,000 -344 Descending Washington Center
Fri 09:06:32 AM 38.3989 -77.1361 10° North 306 352 10,000  Level Washington Center
Fri 09:07:30 AM 38.4825 -77.1167 10° North 300 345 10,000  Level Washington Center
Fri 09:08:31 AM 38.5661 -77.1000 North 300 345 10,000  Level Washington Center
Fri 09:09:30 AM 38.6667 -77.0833 North 303 349 10,000 -555 Level Potomac TRACON
Fri 09:10:30 AM 38.7500 -77.0667 North 296 341 8,900 -1,474 Descending Potomac TRACON
Fri 09:11:24 AM 38.8167 -77.1000 339° North 298 343 7,200 -1,556 Descending Potomac TRACON
Fri 09:12:18 AM 38.8667 -77.1500 322° Northwest 268 308 6,100 -895 Descending Potomac TRACON
Fri 09:13:18 AM 38.9000 -77.2000 311° West 224 258 5,500 -650 Descending Potomac TRACON
Fri 09:14:18 AM 38.9500 -77.2500 322° Northwest 195 224 4,800 -1,041 Descending Potomac TRACON
Fri 09:15:19 AM 38.9833 -77.2500 360° North 209 241 3,400 -900 Descending Potomac TRACON
Fri 09:16:18 AM 38.9833 -77.1833 90° East 187 215 3,000 -407 Descending Potomac TRACON

Login

Don't have an account? Register now (free) for customized features, flight alerts, and more!